createdAt,value
2018-05-29T00:00:48.657Z,82.90
2018-05-29T00:03:16.187Z,82.80
2018-05-29T00:05:44.452Z,82.30
2018-05-29T00:08:12.740Z,82.70
2018-05-29T00:10:41.021Z,82.60
2018-05-29T00:13:09.310Z,82.70
2018-05-29T00:15:36.841Z,82.50
2018-05-29T00:18:05.125Z,82.50
2018-05-29T00:20:33.416Z,82.80
2018-05-29T00:23:00.930Z,82.70
2018-05-29T00:25:28.450Z,84.50
2018-05-29T00:27:55.967Z,83.70
2018-05-29T00:30:24.263Z,85.00
2018-05-29T00:32:51.778Z,84.90
2018-05-29T00:35:19.298Z,85.60
2018-05-29T00:37:46.830Z,84.80
2018-05-29T00:40:15.096Z,85.20
2018-05-29T00:42:43.389Z,85.50
2018-05-29T00:45:11.652Z,85.70
2018-05-29T00:47:39.950Z,85.30
2018-05-29T00:50:07.462Z,85.20
2018-05-29T00:52:34.977Z,84.90
2018-05-29T00:55:14.458Z,85.40
2018-05-29T00:57:41.990Z,84.80
2018-05-29T01:00:09.510Z,86.20
2018-05-29T01:02:37.780Z,86.60
2018-05-29T01:05:06.072Z,86.40
2018-05-29T01:07:33.591Z,86.40
2018-05-29T01:10:01.132Z,86.60
2018-05-29T01:12:28.662Z,86.50
2018-05-29T01:14:56.198Z,87.70
2018-05-29T01:17:24.463Z,86.50
2018-05-29T01:19:52.752Z,86.60
2018-05-29T01:22:21.038Z,86.60
2018-05-29T01:24:49.342Z,85.70
2018-05-29T01:27:16.849Z,85.70
2018-05-29T01:29:45.132Z,85.90
2018-05-29T01:32:13.426Z,86.60
2018-05-29T01:34:40.944Z,86.50
2018-05-29T01:37:09.226Z,86.10
2018-05-29T01:39:36.735Z,86.10
2018-05-29T01:42:04.276Z,86.20
2018-05-29T01:44:31.790Z,85.90
2018-05-29T01:46:59.334Z,85.70
2018-05-29T01:49:26.842Z,85.20
2018-05-29T01:51:55.108Z,84.40
2018-05-29T01:54:23.399Z,83.70
2018-05-29T01:56:51.684Z,83.70
2018-05-29T01:59:19.205Z,83.70
2018-05-29T02:01:49.393Z,85.40
2018-05-29T02:04:17.001Z,84.60
2018-05-29T02:06:44.469Z,84.50
2018-05-29T02:09:12.761Z,84.80
2018-05-29T02:11:40.269Z,84.60
2018-05-29T02:14:08.566Z,85.10
2018-05-29T02:16:36.831Z,85.00
2018-05-29T02:19:05.845Z,84.30
2018-05-29T02:21:34.146Z,84.20
2018-05-29T02:24:01.649Z,84.20
2018-05-29T02:26:29.169Z,84.40
2018-05-29T02:28:56.682Z,85.30
2018-05-29T02:31:24.219Z,85.50
2018-05-29T02:33:51.743Z,85.00
2018-05-29T02:36:19.260Z,85.20
2018-05-29T02:38:46.764Z,88.30
2018-05-29T02:41:14.282Z,88.20
2018-05-29T02:43:42.586Z,87.80
2018-05-29T02:46:10.108Z,87.70
2018-05-29T02:48:38.426Z,88.30
2018-05-29T02:51:05.959Z,88.00
2018-05-29T02:53:34.254Z,87.50
2018-05-29T02:56:01.767Z,87.50
2018-05-29T02:58:29.307Z,87.50
2018-05-29T03:00:56.831Z,88.10
2018-05-29T03:03:24.371Z,89.20
2018-05-29T03:05:52.643Z,90.40
2018-05-29T03:08:20.919Z,90.60
2018-05-29T03:10:49.204Z,89.50
2018-05-29T03:13:17.481Z,89.90
2018-05-29T03:15:45.765Z,88.50
2018-05-29T03:18:13.280Z,88.40
2018-05-29T03:20:40.818Z,88.20
2018-05-29T03:23:08.338Z,88.00
2018-05-29T03:25:36.620Z,88.70
2018-05-29T03:28:04.121Z,88.70
2018-05-29T03:30:31.642Z,88.70
2018-05-29T03:32:59.170Z,88.10
2018-05-29T03:35:27.466Z,88.60
2018-05-29T03:37:55.763Z,88.60
2018-05-29T03:40:23.278Z,88.60
2018-05-29T03:42:50.810Z,87.70
2018-05-29T03:45:18.312Z,87.60
2018-05-29T03:47:46.596Z,89.10
2018-05-29T03:50:14.866Z,89.50
2018-05-29T03:52:43.156Z,88.60
2018-05-29T03:55:10.656Z,88.60
2018-05-29T03:57:38.173Z,88.30
2018-05-29T04:00:05.706Z,89.00
2018-05-29T04:02:33.980Z,89.20
2018-05-29T04:05:02.268Z,90.50
2018-05-29T04:07:30.684Z,90.40
2018-05-29T04:09:58.233Z,90.00
2018-05-29T04:12:25.742Z,90.10
2018-05-29T04:14:53.268Z,89.50
2018-05-29T04:17:20.782Z,89.00
2018-05-29T04:19:49.086Z,88.40
2018-05-29T04:22:16.606Z,88.40
2018-05-29T04:24:44.868Z,88.50
2018-05-29T04:27:12.428Z,87.90
2018-05-29T04:29:39.957Z,88.70
2018-05-29T04:32:07.509Z,88.00
2018-05-29T04:34:35.018Z,88.80
2018-05-29T04:37:03.318Z,87.80
2018-05-29T04:39:30.843Z,87.70
2018-05-29T04:41:58.373Z,88.40
2018-05-29T04:44:25.890Z,89.90
2018-05-29T04:46:53.395Z,89.20
2018-05-29T04:49:20.926Z,89.10
2018-05-29T04:51:48.445Z,88.90
2018-05-29T04:54:16.746Z,89.20
2018-05-29T04:56:44.275Z,89.00
2018-05-29T04:59:11.795Z,88.30
2018-05-29T05:01:39.314Z,87.90
2018-05-29T05:04:06.854Z,87.80
2018-05-29T05:06:34.383Z,87.60
2018-05-29T05:09:01.937Z,88.20
2018-05-29T05:11:29.479Z,87.30
2018-05-29T05:13:56.995Z,87.30
2018-05-29T05:16:25.284Z,86.70
2018-05-29T05:18:53.583Z,86.20
2018-05-29T05:21:21.154Z,86.10
2018-05-29T05:23:48.660Z,85.60
2018-05-29T05:26:16.183Z,85.30
2018-05-29T05:28:43.684Z,85.20
2018-05-29T05:31:11.976Z,84.00
2018-05-29T05:33:39.489Z,83.90
2018-05-29T05:36:07.002Z,83.60
2018-05-29T05:38:34.526Z,83.30
2018-05-29T05:41:02.036Z,83.50
2018-05-29T05:43:29.557Z,83.10
2018-05-29T05:45:57.829Z,83.40
2018-05-29T05:48:26.128Z,83.40
2018-05-29T05:50:53.675Z,83.30
2018-05-29T05:53:21.964Z,82.30
2018-05-29T05:55:49.484Z,82.30
2018-05-29T05:58:17.002Z,81.30
2018-05-29T06:00:44.534Z,81.50
2018-05-29T06:03:12.043Z,80.50
2018-05-29T06:05:39.565Z,80.70
2018-05-29T06:08:07.086Z,80.70
2018-05-29T06:10:35.380Z,81.30
2018-05-29T06:13:03.663Z,81.10
2018-05-29T06:15:31.200Z,81.10
2018-05-29T06:17:59.478Z,80.50
2018-05-29T06:20:27.862Z,79.90
2018-05-29T06:22:56.151Z,79.80
2018-05-29T06:25:23.655Z,79.80
2018-05-29T06:27:51.312Z,79.50
2018-05-29T06:30:18.838Z,79.20
2018-05-29T06:32:46.366Z,79.30
2018-05-29T06:35:14.650Z,77.70
2018-05-29T06:37:42.952Z,77.40
2018-05-29T06:40:10.465Z,77.20
2018-05-29T06:42:37.980Z,77.70
2018-05-29T06:45:05.553Z,76.20
2018-05-29T06:47:33.024Z,75.60
2018-05-29T06:50:00.620Z,75.60
2018-05-29T06:52:28.933Z,74.20
2018-05-29T06:54:56.450Z,74.20
2018-05-29T06:57:24.734Z,71.60
2018-05-29T06:59:53.034Z,71.10
2018-05-29T07:02:20.538Z,71.00
2018-05-29T07:04:48.066Z,72.20
2018-05-29T07:07:15.569Z,71.80
2018-05-29T07:09:43.124Z,72.20
2018-05-29T07:12:10.642Z,69.50
2018-05-29T07:14:38.185Z,68.90
2018-05-29T07:17:06.458Z,68.20
2018-05-29T07:19:33.957Z,68.30
2018-05-29T07:22:01.495Z,69.90
2018-05-29T07:24:29.007Z,69.00
2018-05-29T07:26:57.310Z,69.20
2018-05-29T07:29:24.820Z,68.80
2018-05-29T07:31:52.359Z,69.40
2018-05-29T07:34:19.882Z,67.10
2018-05-29T07:36:47.400Z,67.20
2018-05-29T07:39:14.925Z,68.10
2018-05-29T07:41:42.429Z,67.50
2018-05-29T07:44:10.716Z,66.50
2018-05-29T07:46:38.993Z,65.30
2018-05-29T07:49:07.296Z,64.30
2018-05-29T07:51:34.825Z,64.20
2018-05-29T07:54:03.136Z,64.60
2018-05-29T07:56:30.657Z,64.60
2018-05-29T07:58:58.945Z,63.20
2018-05-29T08:01:27.221Z,63.50
2018-05-29T08:03:55.501Z,63.10
2018-05-29T08:06:23.061Z,63.10
2018-05-29T08:08:50.546Z,64.10
2018-05-29T08:11:18.073Z,64.60
2018-05-29T08:13:46.352Z,63.80
2018-05-29T08:16:14.660Z,62.40
2018-05-29T08:18:42.173Z,62.40
2018-05-29T08:21:09.701Z,63.50
2018-05-29T08:23:37.214Z,63.40
2018-05-29T08:26:04.731Z,62.10
2018-05-29T08:28:32.269Z,62.00
2018-05-29T08:30:59.804Z,62.60
2018-05-29T08:33:27.343Z,60.60
2018-05-29T08:35:55.633Z,59.10
2018-05-29T08:38:23.171Z,59.00
2018-05-29T08:40:51.458Z,51.70
2018-05-29T08:43:18.988Z,51.70
2018-05-29T08:45:46.508Z,50.20
2018-05-29T08:48:14.032Z,46.60
2018-05-29T08:50:41.550Z,48.70
2018-05-29T08:53:09.048Z,46.80
2018-05-29T08:55:37.332Z,46.90
2018-05-29T08:58:04.845Z,46.90
2018-05-29T09:00:32.383Z,46.50
2018-05-29T09:02:59.898Z,43.70
2018-05-29T09:05:27.532Z,44.50
2018-05-29T09:07:55.051Z,46.40
2018-05-29T09:10:22.577Z,44.10
2018-05-29T09:12:50.097Z,43.40
2018-05-29T09:15:17.625Z,45.80
2018-05-29T09:17:45.159Z,45.60
2018-05-29T09:20:12.674Z,44.10
2018-05-29T09:22:40.206Z,44.90
2018-05-29T09:25:07.730Z,45.00
2018-05-29T09:27:36.019Z,46.00
2018-05-29T09:30:03.522Z,45.90
2018-05-29T09:32:31.051Z,47.10
2018-05-29T09:34:58.552Z,47.10
2018-05-29T09:37:26.144Z,47.10
2018-05-29T09:39:53.630Z,46.80
2018-05-29T09:42:21.154Z,48.80
2018-05-29T09:44:49.473Z,44.00
2018-05-29T09:47:16.984Z,43.20
2018-05-29T09:49:45.268Z,46.30
2018-05-29T09:52:13.536Z,43.70
2018-05-29T09:54:41.820Z,44.30
2018-05-29T09:57:10.100Z,44.80
2018-05-29T09:59:37.624Z,44.70
2018-05-29T10:02:05.143Z,44.90
2018-05-29T10:04:32.648Z,41.30
2018-05-29T10:07:00.211Z,44.80
2018-05-29T10:09:27.717Z,42.70
2018-05-29T10:11:55.243Z,43.00
2018-05-29T10:14:23.527Z,38.60
2018-05-29T10:16:51.058Z,38.50
2018-05-29T10:19:18.609Z,40.80
2018-05-29T10:21:46.122Z,41.50
2018-05-29T10:24:13.628Z,38.60
2018-05-29T10:26:41.168Z,39.20
2018-05-29T10:29:08.690Z,38.60
2018-05-29T10:31:36.266Z,39.90
2018-05-29T10:34:03.804Z,39.50
2018-05-29T10:36:31.315Z,40.70
2018-05-29T10:38:58.838Z,39.50
2018-05-29T10:41:26.340Z,41.60
2018-05-29T10:43:53.866Z,43.10
2018-05-29T10:46:21.378Z,41.90
2018-05-29T10:48:49.682Z,44.50
2018-05-29T10:51:17.231Z,44.40
2018-05-29T10:53:44.739Z,44.10
2018-05-29T10:56:12.265Z,45.50
2018-05-29T10:58:39.773Z,43.90
2018-05-29T11:01:07.316Z,46.10
2018-05-29T11:03:34.820Z,46.20
2018-05-29T11:06:02.341Z,46.10
2018-05-29T11:08:29.857Z,47.50
2018-05-29T11:10:57.380Z,46.00
2018-05-29T11:13:25.663Z,48.20
2018-05-29T11:15:53.948Z,48.20
2018-05-29T11:18:21.457Z,48.20
2018-05-29T11:20:48.967Z,47.90
2018-05-29T11:23:16.498Z,48.50
2018-05-29T11:25:44.780Z,49.40
2018-05-29T11:28:13.809Z,48.00
2018-05-29T11:30:41.334Z,47.90
2018-05-29T11:33:09.624Z,46.10
2018-05-29T11:35:37.901Z,45.70
2018-05-29T11:38:06.231Z,46.80
2018-05-29T11:40:33.742Z,46.70
2018-05-29T11:43:01.249Z,45.20
2018-05-29T11:45:28.789Z,44.90
2018-05-29T11:47:56.288Z,45.70
2018-05-29T11:50:23.830Z,47.10
2018-05-29T11:52:51.337Z,48.60
2018-05-29T11:55:18.915Z,47.70
2018-05-29T11:57:46.438Z,46.80
2018-05-29T12:00:14.733Z,43.40
2018-05-29T12:02:42.254Z,43.40
2018-05-29T12:05:09.785Z,42.40
2018-05-29T12:07:37.310Z,46.20
2018-05-29T12:10:04.828Z,46.80
2018-05-29T12:12:32.344Z,40.90
2018-05-29T12:14:59.844Z,41.60
2018-05-29T12:17:27.360Z,42.60
2018-05-29T12:19:54.882Z,41.20
2018-05-29T12:22:23.205Z,39.20
2018-05-29T12:24:50.732Z,39.20
2018-05-29T12:27:18.290Z,40.20
2018-05-29T12:29:46.570Z,37.90
2018-05-29T12:32:14.095Z,37.80
2018-05-29T12:34:41.629Z,35.10
2018-05-29T12:37:09.146Z,37.30
2018-05-29T12:39:36.690Z,36.30
2018-05-29T12:42:04.982Z,34.70
2018-05-29T12:44:32.513Z,34.60
2018-05-29T12:47:00.801Z,33.10
2018-05-29T12:49:29.111Z,35.90
2018-05-29T12:51:56.618Z,35.90
2018-05-29T12:54:24.151Z,32.50
2018-05-29T12:56:51.661Z,34.20
2018-05-29T12:59:19.176Z,34.60
2018-05-29T13:01:46.812Z,33.20
2018-05-29T13:04:14.334Z,33.80
2018-05-29T13:06:42.713Z,33.70
2018-05-29T13:09:10.982Z,33.70
2018-05-29T13:11:39.290Z,33.30
2018-05-29T13:14:06.793Z,33.30
2018-05-29T13:16:35.855Z,31.40
2018-05-29T13:19:03.411Z,31.40
2018-05-29T13:21:30.963Z,33.20
2018-05-29T13:23:58.485Z,30.50
2018-05-29T13:26:26.756Z,30.00
2018-05-29T13:28:55.081Z,30.00
2018-05-29T13:31:22.672Z,29.90
2018-05-29T13:33:50.231Z,30.90
2018-05-29T13:36:18.004Z,30.30
2018-05-29T13:38:45.590Z,30.00
2018-05-29T13:41:13.875Z,30.40
2018-05-29T13:43:41.405Z,30.50
2018-05-29T13:46:09.715Z,31.10
2018-05-29T13:48:37.239Z,31.20
2018-05-29T13:51:04.782Z,30.00
2018-05-29T13:53:32.288Z,30.90
2018-05-29T13:55:59.816Z,32.30
2018-05-29T13:58:27.343Z,30.00
2018-05-29T14:00:54.994Z,31.80
2018-05-29T14:03:22.613Z,30.40
2018-05-29T14:05:50.123Z,30.30
2018-05-29T14:08:17.646Z,29.50
2018-05-29T14:10:45.179Z,30.60
2018-05-29T14:13:12.738Z,29.30
2018-05-29T14:15:40.271Z,28.60
2018-05-29T14:18:07.793Z,28.30
2018-05-29T14:20:35.296Z,28.90
2018-05-29T14:23:02.843Z,27.90
2018-05-29T14:25:30.344Z,28.00
2018-05-29T14:27:58.650Z,27.40
2018-05-29T14:30:26.183Z,27.30
2018-05-29T14:32:54.466Z,27.30
2018-05-29T14:35:22.004Z,27.20
2018-05-29T14:37:49.527Z,26.50
2018-05-29T14:40:17.070Z,27.10
2018-05-29T14:42:44.586Z,26.80
2018-05-29T14:45:12.876Z,28.00
2018-05-29T14:47:41.154Z,28.10
2018-05-29T14:50:08.680Z,28.10
2018-05-29T14:52:36.203Z,29.40
2018-05-29T14:55:03.729Z,30.90
2018-05-29T14:57:31.251Z,31.60
2018-05-29T14:59:58.756Z,32.80
2018-05-29T15:02:26.279Z,32.70
2018-05-29T15:04:53.794Z,34.20
2018-05-29T15:07:21.317Z,34.90
2018-05-29T15:09:49.598Z,35.70
2018-05-29T15:12:17.893Z,37.20
2018-05-29T15:14:45.422Z,37.30
2018-05-29T15:17:13.730Z,37.50
2018-05-29T15:19:41.245Z,37.50
2018-05-29T15:22:08.767Z,36.90
2018-05-29T15:24:36.315Z,37.90
2018-05-29T15:27:03.842Z,38.60
2018-05-29T15:29:32.132Z,39.70
2018-05-29T15:31:59.650Z,39.60
2018-05-29T15:34:27.179Z,39.80
2018-05-29T15:36:54.689Z,41.30
2018-05-29T15:39:22.984Z,42.20
2018-05-29T15:41:50.488Z,42.30
2018-05-29T15:44:18.035Z,42.90
2018-05-29T15:46:45.535Z,43.90
2018-05-29T15:49:13.832Z,45.00
2018-05-29T15:51:41.356Z,44.90
2018-05-29T15:54:08.856Z,45.60
2018-05-29T15:56:36.391Z,45.90
2018-05-29T15:59:04.661Z,45.50
2018-05-29T16:01:32.948Z,46.50
2018-05-29T16:04:01.221Z,46.50
2018-05-29T16:06:29.531Z,45.50
2018-05-29T16:08:57.037Z,45.50
2018-05-29T16:11:24.541Z,45.50
2018-05-29T16:13:52.060Z,46.00
2018-05-29T16:16:19.560Z,46.10
2018-05-29T16:18:47.090Z,46.30
2018-05-29T16:21:15.370Z,46.10
2018-05-29T16:23:43.781Z,46.10
2018-05-29T16:26:11.299Z,46.00
2018-05-29T16:28:39.596Z,46.60
2018-05-29T16:31:07.120Z,46.70
2018-05-29T16:33:34.662Z,46.30
2018-05-29T16:36:02.181Z,46.80
2018-05-29T16:38:29.699Z,47.10
2018-05-29T16:40:57.233Z,47.40
2018-05-29T16:43:24.740Z,48.80
2018-05-29T16:45:53.027Z,48.30
2018-05-29T16:48:20.556Z,48.30
2018-05-29T16:50:48.077Z,48.10
2018-05-29T16:53:15.584Z,48.00
2018-05-29T16:55:43.891Z,48.40
2018-05-29T16:58:11.512Z,48.40
2018-05-29T17:00:39.794Z,48.80
2018-05-29T17:03:08.088Z,49.40
2018-05-29T17:05:35.596Z,49.40
2018-05-29T17:08:03.112Z,50.10
2018-05-29T17:10:30.622Z,49.40
2018-05-29T17:12:59.660Z,49.40
2018-05-29T17:15:27.209Z,49.40
2018-05-29T17:17:54.718Z,49.50
2018-05-29T17:20:22.236Z,50.40
2018-05-29T17:22:49.750Z,49.90
2018-05-29T17:25:18.046Z,50.20
2018-05-29T17:27:46.341Z,51.00
2018-05-29T17:30:13.868Z,51.00
2018-05-29T17:32:42.203Z,50.80
2018-05-29T17:35:09.730Z,50.80
2018-05-29T17:37:38.023Z,51.30
2018-05-29T17:40:05.559Z,51.30
2018-05-29T17:42:33.836Z,52.10
2018-05-29T17:45:02.149Z,51.70
2018-05-29T17:47:29.669Z,51.70
2018-05-29T17:49:57.945Z,52.30
2018-05-29T17:52:26.249Z,52.60
2018-05-29T17:54:53.774Z,52.60
2018-05-29T17:57:22.056Z,53.30
2018-05-29T17:59:50.335Z,52.80
2018-05-29T18:02:18.631Z,53.00
2018-05-29T18:04:46.166Z,53.00
2018-05-29T18:07:14.463Z,52.80
2018-05-29T18:09:41.964Z,52.80
2018-05-29T18:12:09.486Z,52.90
2018-05-29T18:14:37.017Z,53.20
2018-05-29T18:17:05.293Z,54.20
2018-05-29T18:19:33.583Z,54.20
2018-05-29T18:22:01.862Z,54.50
2018-05-29T18:24:30.154Z,55.30
2018-05-29T18:26:57.683Z,55.40
2018-05-29T18:29:25.972Z,54.80
2018-05-29T18:31:54.248Z,54.50
2018-05-29T18:34:22.550Z,54.60
2018-05-29T18:36:50.067Z,54.70
2018-05-29T18:39:18.341Z,55.30
2018-05-29T18:41:45.863Z,55.20
2018-05-29T18:44:13.369Z,55.60
2018-05-29T18:46:41.658Z,55.80
2018-05-29T18:49:09.188Z,55.70
2018-05-29T18:51:36.718Z,56.40
2018-05-29T18:54:04.223Z,56.50
2018-05-29T18:56:32.528Z,59.00
2018-05-29T18:59:00.051Z,59.00
2018-05-29T19:01:28.374Z,63.30
2018-05-29T19:03:55.906Z,63.50
2018-05-29T19:06:23.417Z,65.90
2018-05-29T19:08:50.941Z,66.10
2018-05-29T19:11:18.452Z,66.90
2018-05-29T19:13:45.980Z,66.40
2018-05-29T19:16:13.497Z,67.50
2018-05-29T19:18:41.026Z,66.60
2018-05-29T19:21:08.545Z,68.20
2018-05-29T19:23:36.087Z,70.60
2018-05-29T19:26:03.616Z,71.40
2018-05-29T19:28:31.900Z,72.70
2018-05-29T19:31:00.198Z,72.40
2018-05-29T19:33:27.713Z,72.30
2018-05-29T19:35:55.255Z,76.70
2018-05-29T19:38:22.778Z,78.30
2018-05-29T19:40:50.306Z,79.20
2018-05-29T19:43:18.597Z,76.70
2018-05-29T19:45:46.135Z,76.70
2018-05-29T19:48:14.455Z,72.00
2018-05-29T19:50:42.000Z,72.00
2018-05-29T19:53:09.522Z,76.80
2018-05-29T19:55:37.049Z,76.20
2018-05-29T19:58:04.568Z,76.30
2018-05-29T20:00:32.069Z,75.20
2018-05-29T20:02:59.604Z,77.70
2018-05-29T20:05:27.117Z,77.10
2018-05-29T20:07:54.640Z,77.30
2018-05-29T20:10:22.159Z,78.10
2018-05-29T20:12:49.739Z,76.30
2018-05-29T20:15:17.259Z,79.30
2018-05-29T20:17:45.537Z,79.50
2018-05-29T20:20:13.830Z,79.60
2018-05-29T20:22:41.350Z,79.60
2018-05-29T20:25:08.885Z,80.20
2018-05-29T20:27:36.396Z,81.40
2018-05-29T20:30:04.695Z,80.30
2018-05-29T20:32:32.219Z,80.20
2018-05-29T20:35:00.530Z,84.50
2018-05-29T20:37:28.040Z,84.50
2018-05-29T20:39:55.579Z,84.00
2018-05-29T20:42:23.098Z,85.00
2018-05-29T20:44:50.613Z,85.00
2018-05-29T20:47:18.149Z,85.00
2018-05-29T20:49:45.670Z,85.00
2018-05-29T20:52:13.197Z,84.80
2018-05-29T20:54:40.704Z,85.00
2018-05-29T20:57:08.238Z,84.10
2018-05-29T20:59:37.239Z,85.60
2018-05-29T21:02:04.771Z,85.60
2018-05-29T21:04:33.137Z,85.50
2018-05-29T21:07:01.944Z,84.60
2018-05-29T21:09:31.850Z,82.50
2018-05-29T21:12:04.981Z,84.30
2018-05-29T21:14:35.201Z,85.00
2018-05-29T21:17:05.401Z,84.60
2018-05-29T21:19:33.789Z,84.60
2018-05-29T21:22:01.288Z,84.50
2018-05-29T21:24:28.808Z,84.40
2018-05-29T21:26:56.316Z,83.30
2018-05-29T21:29:23.850Z,83.20
2018-05-29T21:31:51.478Z,83.80
2018-05-29T21:34:19.760Z,83.80
2018-05-29T21:36:47.294Z,83.80
2018-05-29T21:39:14.805Z,84.20
2018-05-29T21:41:42.338Z,83.20
2018-05-29T21:44:09.858Z,82.80
2018-05-29T21:46:37.426Z,84.10
2018-05-29T21:49:04.942Z,83.80
2018-05-29T21:51:32.480Z,83.00
2018-05-29T21:53:59.994Z,83.80
2018-05-29T21:56:27.515Z,84.70
2018-05-29T21:58:55.045Z,83.60
2018-05-29T22:01:22.569Z,82.90
2018-05-29T22:03:50.092Z,83.90
2018-05-29T22:06:17.592Z,86.10
2018-05-29T22:08:45.120Z,86.00
2018-05-29T22:11:12.618Z,85.50
2018-05-29T22:13:40.911Z,85.80
2018-05-29T22:16:09.187Z,85.40
2018-05-29T22:18:37.496Z,84.70
2018-05-29T22:21:05.097Z,84.70
2018-05-29T22:23:32.601Z,86.70
2018-05-29T22:26:00.140Z,86.20
2018-05-29T22:28:28.427Z,88.10
2018-05-29T22:30:56.693Z,87.90
2018-05-29T22:33:24.989Z,89.10
2018-05-29T22:35:52.500Z,89.00
2018-05-29T22:38:20.020Z,88.30
2018-05-29T22:40:47.558Z,90.00
2018-05-29T22:43:15.086Z,87.90
2018-05-29T22:45:42.602Z,88.30
2018-05-29T22:48:10.144Z,89.30
2018-05-29T22:50:37.644Z,89.20
2018-05-29T22:53:05.163Z,87.90
2018-05-29T22:55:32.707Z,88.80
2018-05-29T22:58:00.227Z,88.00
2018-05-29T23:00:27.748Z,89.30
2018-05-29T23:02:55.290Z,89.80
2018-05-29T23:05:22.797Z,88.10
2018-05-29T23:07:50.316Z,90.40
2018-05-29T23:10:17.865Z,89.70
2018-05-29T23:12:45.376Z,88.90
2018-05-29T23:15:12.894Z,88.30
2018-05-29T23:17:40.434Z,88.20
2018-05-29T23:20:07.958Z,87.40
2018-05-29T23:22:35.472Z,86.80
2018-05-29T23:25:03.005Z,86.70
2018-05-29T23:27:30.529Z,87.60
2018-05-29T23:29:58.034Z,88.00
2018-05-29T23:32:25.577Z,87.50
2018-05-29T23:34:53.854Z,87.50
2018-05-29T23:37:21.357Z,87.40
2018-05-29T23:39:48.885Z,87.00
2018-05-29T23:42:16.392Z,86.30
2018-05-29T23:44:43.897Z,86.20
2018-05-29T23:47:11.429Z,86.80
2018-05-29T23:49:39.714Z,88.80
2018-05-29T23:52:07.983Z,87.60
2018-05-29T23:54:36.276Z,87.50
2018-05-29T23:57:04.548Z,88.60
2018-05-29T23:59:32.835Z,88.70
